Aidadiva — ICDH — position and weather

sailwx.info

Track history (hours):
 
Tides and Currents Weather Stations Pressure Air Temp Water Temp Dewpoint Dewpoint Depression Visibility Wind Speed Wind Dir Waves Ship Positions

Aidadiva

Last reported at 2017-Oct-12 06:42 UTC. Time now 2017-Oct-17 18:55 UTC.
Position N 42°54' W 070°01'.

Length 251 m; draft 7.2 m.

Type: Ship. MMSI: 247187700.

Date/timePositionNaut miles runAvg speedWind from/ knotsBaromVisibWave heightAir tempDewpointWater temp
2017-Oct-12 06:42N 42°54' W 070°01'313.5
2017-Oct-12 06:30N 42°52' W 070°03'713.4
2017-Oct-12 06:00N 42°46' W 070°08'612.9
2017-Oct-12 05:30N 42°41' W 070°13'713.4
2017-Oct-12 05:00N 42°38' W 070°21'612.7
2017-Oct-12 04:30N 42°35' W 070°29'3 5.8
2017-Oct-12 04:00N 42°33' W 070°32'3 5.6
2017-Oct-12 03:30N 42°32' W 070°36'3 5.5
2017-Oct-12 03:00N 42°31' W 070°39'3 5.5
2017-Oct-12 02:30N 42°29' W 070°42'3 5.8
2017-Oct-12 02:00N 42°27' W 070°44'3 6.2
2017-Oct-12 01:30N 42°25' W 070°48'4 8.7
2017-Oct-12 01:00N 42°23' W 070°53'611.6
2017-Oct-12 00:30N 42°20' W 070°60'2 3.6
2017-Oct-12 00:00N 42°21' W 071°02'0 0.2
2017-Oct-11 23:30N 42°21' W 071°02'0 0.0
2017-Oct-11 23:00N 42°21' W 071°02'0 0.0
2017-Oct-11 22:30N 42°21' W 071°02'0 0.0
2017-Oct-11 22:00N 42°21' W 071°02'0 0.0
2017-Oct-11 21:30N 42°21' W 071°02'0 0.0
2017-Oct-11 21:00N 42°21' W 071°02'0 0.0
2017-Oct-11 20:30N 42°21' W 071°02'0 0.0
2017-Oct-11 20:00N 42°21' W 071°02'0 0.0
2017-Oct-11 19:30N 42°21' W 071°02'0 0.0
2017-Oct-11 19:00N 42°21' W 071°02'0 0.0
2017-Oct-11 18:30N 42°21' W 071°02'0 0.0
2017-Oct-11 18:00N 42°21' W 071°02'0 0.0
2017-Oct-11 17:30N 42°21' W 071°02'0 0.0
2017-Oct-11 17:00N 42°21' W 071°02'115 5.4
2017-Oct-10 19:50N 41°03' W 069°08'21411.7
2017-Oct-10 01:31N 40°27' W 073°46'013.6
2017-Oct-10 01:29N 40°27' W 073°47'611.9
2017-Oct-10 01:00N 40°29' W 073°54'713.1
2017-Oct-10 00:30N 40°32' W 074°01'713.6
2017-Oct-10 00:00N 40°39' W 074°03'510.9
2017-Oct-09 23:30N 40°44' W 074°01'2 4.6
2017-Oct-09 22:59N 40°46' W 073°60'0 0.0
2017-Oct-09 22:30N 40°46' W 073°60'0 0.0
2017-Oct-09 22:00N 40°46' W 073°60'0 0.0
2017-Oct-09 21:30N 40°46' W 073°60'0 0.0
2017-Oct-09 21:00N 40°46' W 073°60'0 0.0
2017-Oct-09 20:30N 40°46' W 073°60'0 0.0
2017-Oct-09 20:00N 40°46' W 073°60'0 0.0
2017-Oct-09 19:30N 40°46' W 073°60'0 0.0
2017-Oct-09 19:00N 40°46' W 073°60'0 0.0
2017-Oct-09 18:30N 40°46' W 073°60'0 0.0
2017-Oct-09 18:00N 40°46' W 073°60'0 0.0
2017-Oct-09 17:30N 40°46' W 073°60'0 0.0
2017-Oct-09 17:00N 40°46' W 073°60'0 0.0
2017-Oct-09 16:30N 40°46' W 073°60'0 0.0
2017-Oct-09 16:00N 40°46' W 073°60'0 0.0
2017-Oct-09 15:30N 40°46' W 073°60'0 0.0
2017-Oct-09 15:00N 40°46' W 073°60'0 0.0
2017-Oct-09 14:30N 40°46' W 073°60'0 0.0
2017-Oct-09 14:00N 40°46' W 073°60'0 0.0
2017-Oct-09 13:30N 40°46' W 073°60'0 0.0
2017-Oct-09 13:00N 40°46' W 073°60'0 0.0
2017-Oct-09 12:30N 40°46' W 073°60'0 0.0
2017-Oct-09 12:00N 40°46' W 073°60'0 0.0
2017-Oct-09 11:30N 40°46' W 073°60'0 0.0
2017-Oct-09 11:00N 40°46' W 073°60'0 0.0
2017-Oct-09 10:30N 40°46' W 073°60'0 0.0
2017-Oct-09 10:00N 40°46' W 073°60'0 0.0
2017-Oct-09 09:30N 40°46' W 073°60'0 0.0
2017-Oct-09 09:00N 40°46' W 073°60'0 0.0
2017-Oct-09 08:30N 40°46' W 073°60'0 0.0
2017-Oct-09 08:00N 40°46' W 073°60'0 0.0
2017-Oct-09 07:30N 40°46' W 073°60'0 0.0
2017-Oct-09 07:00N 40°46' W 073°60'0 0.0
2017-Oct-09 06:30N 40°46' W 073°60'0 0.0
2017-Oct-09 06:00N 40°46' W 073°60'0 0.0
2017-Oct-09 05:30N 40°46' W 073°60'0 0.0
2017-Oct-09 05:00N 40°46' W 073°60'0 0.0
2017-Oct-09 04:30N 40°46' W 073°60'0 0.0
2017-Oct-09 04:00N 40°46' W 073°60'0 0.0
2017-Oct-09 03:30N 40°46' W 073°60'0 0.0
2017-Oct-09 03:00N 40°46' W 073°60'0 0.0
2017-Oct-09 02:30N 40°46' W 073°60'0 0.0
2017-Oct-09 02:00N 40°46' W 073°60'0 0.0
2017-Oct-09 01:30N 40°46' W 073°60'0 0.0
2017-Oct-09 01:00N 40°46' W 073°60'0 0.0
2017-Oct-09 00:30N 40°46' W 073°60'0 0.0
2017-Oct-09 00:00N 40°46' W 073°60'0 0.0
2017-Oct-08 23:30N 40°46' W 073°60'0 0.0
2017-Oct-08 23:00N 40°46' W 073°60'0 0.0
2017-Oct-08 22:30N 40°46' W 073°60'0 0.0
2017-Oct-08 22:00N 40°46' W 073°60'0 0.0
2017-Oct-08 21:30N 40°46' W 073°60'0 0.0
2017-Oct-08 21:00N 40°46' W 073°60'0 0.0
2017-Oct-08 20:30N 40°46' W 073°60'0 0.0
2017-Oct-08 20:00N 40°46' W 073°60'0 0.0
2017-Oct-08 19:30N 40°46' W 073°60'0 0.0
2017-Oct-08 19:00N 40°46' W 073°60'0 0.0
2017-Oct-08 18:30N 40°46' W 073°60'0 0.0
2017-Oct-08 18:00N 40°46' W 073°60'0 0.0
2017-Oct-08 17:30N 40°46' W 073°60'0 0.0
2017-Oct-08 17:00N 40°46' W 073°60'0 0.0
2017-Oct-08 16:30N 40°46' W 073°60'0 0.0
2017-Oct-08 16:00N 40°46' W 073°60'0 0.0
2017-Oct-08 15:30N 40°46' W 073°60'0 0.0
2017-Oct-08 15:00N 40°46' W 073°60'0 0.0
2017-Oct-08 14:30N 40°46' W 073°60'0 0.0
2017-Oct-08 14:00N 40°46' W 073°60'0 0.0
2017-Oct-08 13:30N 40°46' W 073°60'0 0.0
2017-Oct-08 13:00N 40°46' W 073°60'0 0.0
2017-Oct-08 12:30N 40°46' W 073°60'0 0.0
2017-Oct-08 12:00N 40°46' W 073°60'0 0.0
2017-Oct-08 11:30N 40°46' W 073°60'0 0.0
2017-Oct-08 11:00N 40°46' W 073°60'0 0.0
2017-Oct-08 10:30N 40°46' W 073°60'0 0.0
2017-Oct-08 10:00N 40°46' W 073°60'0 0.0
2017-Oct-08 09:30N 40°46' W 073°60'0 0.0
2017-Oct-08 09:00N 40°46' W 073°60'0 0.0
2017-Oct-08 08:30N 40°46' W 073°60'0 0.0
2017-Oct-08 08:00N 40°46' W 073°60'0 0.0
2017-Oct-08 07:30N 40°46' W 073°60'0 0.0
2017-Oct-08 07:00N 40°46' W 073°60'0 0.0
2017-Oct-08 06:30N 40°46' W 073°60'0 0.0
2017-Oct-08 06:00N 40°46' W 073°60'0 0.0
2017-Oct-08 05:30N 40°46' W 073°60'0 0.0
2017-Oct-08 05:00N 40°46' W 073°60'0 0.0
2017-Oct-08 04:30N 40°46' W 073°60'0 0.0
2017-Oct-08 04:00N 40°46' W 073°60'0 0.0
2017-Oct-08 03:30N 40°46' W 073°60'0 0.0
2017-Oct-08 03:00N 40°46' W 073°60'0 0.0
2017-Oct-08 02:30N 40°46' W 073°60'0 0.0
2017-Oct-08 02:00N 40°46' W 073°60'0 0.0
2017-Oct-08 01:30N 40°46' W 073°60'0 0.0
2017-Oct-08 01:00N 40°46' W 073°60'0 0.0
2017-Oct-08 00:30N 40°46' W 073°60'0 0.0
2017-Oct-08 00:00N 40°46' W 073°60'0 0.0
2017-Oct-07 23:30N 40°46' W 073°60'0 0.0
2017-Oct-07 23:00N 40°46' W 073°60'0 0.0
2017-Oct-07 22:30N 40°46' W 073°60'0 0.0
2017-Oct-07 22:00N 40°46' W 073°60'0 0.0
2017-Oct-07 21:30N 40°46' W 073°60'0 0.0
2017-Oct-07 21:00N 40°46' W 073°60'0 0.0
2017-Oct-07 20:30N 40°46' W 073°60'0 0.0
2017-Oct-07 20:00N 40°46' W 073°60'0 0.0
2017-Oct-07 19:30N 40°46' W 073°60'0 0.0
2017-Oct-07 19:00N 40°46' W 073°60'0 0.0
2017-Oct-07 18:30N 40°46' W 073°60'0 0.0
2017-Oct-07 18:00N 40°46' W 073°60'0 0.0
2017-Oct-07 17:30N 40°46' W 073°60'0 0.0
2017-Oct-07 17:00N 40°46' W 073°60'0 0.0
2017-Oct-07 16:30N 40°46' W 073°60'0 0.0
2017-Oct-07 15:59N 40°46' W 073°60'0 0.0
2017-Oct-07 15:30N 40°46' W 073°60'0 0.0
2017-Oct-07 15:00N 40°46' W 073°60'0 0.0
2017-Oct-07 14:30N 40°46' W 073°60'0 0.0
2017-Oct-07 14:00N 40°46' W 073°60'0 0.0
2017-Oct-07 13:30N 40°46' W 073°60'0 0.0
2017-Oct-07 13:00N 40°46' W 073°60'0 0.0
2017-Oct-07 12:30N 40°46' W 073°60'0 0.0
2017-Oct-07 12:00N 40°46' W 073°60'0 1.0
2017-Oct-07 11:30N 40°46' W 074°00'510.6
2017-Oct-07 11:00N 40°41' W 074°02'612.4
2017-Oct-07 10:30N 40°35' W 074°02'814.9
2017-Oct-07 09:59N 40°29' W 073°55'613.1
2017-Oct-07 09:30N 40°27' W 073°47'5 9.1
2017-Oct-07 09:00N 40°27' W 073°41'714.5
2017-Oct-07 08:30N 40°28' W 073°32'714.2
2017-Oct-07 08:00N 40°29' W 073°22'714.2
2017-Oct-07 07:30N 40°29' W 073°13'814.2
2017-Oct-07 06:55N 40°30' W 073°02'614.2
2017-Oct-07 06:30N 40°30' W 072°55'714.2
2017-Oct-07 06:00N 40°30' W 072°45'814.2
2017-Oct-07 05:25N 40°31' W 072°34'714.2
2017-Oct-07 04:55N 40°31' W 072°25'148 6.4
2017-Oct-06 05:46N 42°08' W 069°56'2 8.5
2017-Oct-06 05:30N 42°10' W 069°57'5 8.2
2017-Oct-06 04:55N 42°14' W 070°00'3 7.8
2017-Oct-06 04:30N 42°17' W 070°03'4 8.1
2017-Oct-06 04:00N 42°18' W 070°09'4 7.8
2017-Oct-06 03:30N 42°18' W 070°14'4 7.7
2017-Oct-06 03:00N 42°18' W 070°19'4 7.4
2017-Oct-06 02:30N 42°19' W 070°24'4 7.4
2017-Oct-06 02:00N 42°19' W 070°29'4 7.4
2017-Oct-06 01:30N 42°19' W 070°34'4 8.7
2017-Oct-06 01:00N 42°20' W 070°40'714.2
2017-Oct-06 00:30N 42°24' W 070°48'612.2
2017-Oct-06 00:01N 42°22' W 070°55'4 8.2
2017-Oct-05 23:30N 42°21' W 071°01'1 1.9
2017-Oct-05 23:00N 42°21' W 071°02'0 0.0
2017-Oct-05 22:30N 42°21' W 071°02'0 0.0
2017-Oct-05 22:00N 42°21' W 071°02'0 0.0
2017-Oct-05 21:30N 42°21' W 071°02'0 0.0
2017-Oct-05 21:00N 42°21' W 071°02'0 0.0
2017-Oct-05 20:31N 42°21' W 071°02'0 0.0
2017-Oct-05 20:00N 42°21' W 071°02'0 0.0
2017-Oct-05 19:30N 42°21' W 071°02'0 0.0
2017-Oct-05 19:00N 42°21' W 071°02'0 0.0
2017-Oct-05 18:31N 42°21' W 071°02'0 0.0
2017-Oct-05 18:00N 42°21' W 071°02'0 0.0
2017-Oct-05 17:30N 42°21' W 071°02'0 0.0
2017-Oct-05 17:00N 42°21' W 071°02'0 0.0
2017-Oct-05 15:30N 42°21' W 071°02'0 0.0
2017-Oct-05 15:00N 42°21' W 071°02'0 0.0
2017-Oct-05 14:30N 42°21' W 071°02'0 0.0
2017-Oct-05 14:01N 42°21' W 071°02'0 0.0
2017-Oct-05 13:31N 42°21' W 071°02'0 0.0
2017-Oct-05 13:01N 42°21' W 071°02'0 0.2
2017-Oct-05 12:30N 42°21' W 071°02'3 6.0
2017-Oct-05 12:00N 42°20' W 070°58'612.8
2017-Oct-05 11:31N 42°24' W 070°51'510.1
2017-Oct-05 11:01N 42°26' W 070°45'713.7
2017-Oct-05 10:30N 42°31' W 070°38'713.4
2017-Oct-05 10:00N 42°34' W 070°30'713.3
2017-Oct-05 09:30N 42°38' W 070°22'613.3
2017-Oct-05 09:00N 42°41' W 070°14'713.4
2017-Oct-05 08:31N 42°45' W 070°07'713.6
2017-Oct-05 08:01N 42°49' W 070°00'  
Track history (hours):
 
Tides and Currents Weather Stations Pressure Air Temp Water Temp Dewpoint Dewpoint Depression Visibility Wind Speed Wind Dir Waves Ship Positions

Aidadiva

Last reported at 2017-Oct-12 06:42 UTC. Time now 2017-Oct-17 18:55 UTC.
Position N 42°54' W 070°01'.

Length 251 m; draft 7.2 m.

Type: Ship. MMSI: 247187700.

Date/timePositionNaut miles runAvg speedWind from/ knotsBaromVisibWave heightAir tempDewpointWater temp
2017-Oct-12 06:42N 42°54' W 070°01'313.5
2017-Oct-12 06:30N 42°52' W 070°03'713.4
2017-Oct-12 06:00N 42°46' W 070°08'612.9
2017-Oct-12 05:30N 42°41' W 070°13'713.4
2017-Oct-12 05:00N 42°38' W 070°21'612.7
2017-Oct-12 04:30N 42°35' W 070°29'3 5.8
2017-Oct-12 04:00N 42°33' W 070°32'3 5.6
2017-Oct-12 03:30N 42°32' W 070°36'3 5.5
2017-Oct-12 03:00N 42°31' W 070°39'3 5.5
2017-Oct-12 02:30N 42°29' W 070°42'3 5.8
2017-Oct-12 02:00N 42°27' W 070°44'3 6.2
2017-Oct-12 01:30N 42°25' W 070°48'4 8.7
2017-Oct-12 01:00N 42°23' W 070°53'611.6
2017-Oct-12 00:30N 42°20' W 070°60'2 3.6
2017-Oct-12 00:00N 42°21' W 071°02'0 0.2
2017-Oct-11 23:30N 42°21' W 071°02'0 0.0
2017-Oct-11 23:00N 42°21' W 071°02'0 0.0
2017-Oct-11 22:30N 42°21' W 071°02'0 0.0
2017-Oct-11 22:00N 42°21' W 071°02'0 0.0
2017-Oct-11 21:30N 42°21' W 071°02'0 0.0
2017-Oct-11 21:00N 42°21' W 071°02'0 0.0
2017-Oct-11 20:30N 42°21' W 071°02'0 0.0
2017-Oct-11 20:00N 42°21' W 071°02'0 0.0
2017-Oct-11 19:30N 42°21' W 071°02'0 0.0
2017-Oct-11 19:00N 42°21' W 071°02'0 0.0
2017-Oct-11 18:30N 42°21' W 071°02'0 0.0
2017-Oct-11 18:00N 42°21' W 071°02'0 0.0
2017-Oct-11 17:30N 42°21' W 071°02'0 0.0
2017-Oct-11 17:00N 42°21' W 071°02'115 5.4
2017-Oct-10 19:50N 41°03' W 069°08'21411.7
2017-Oct-10 01:31N 40°27' W 073°46'013.6
2017-Oct-10 01:29N 40°27' W 073°47'611.9
2017-Oct-10 01:00N 40°29' W 073°54'713.1
2017-Oct-10 00:30N 40°32' W 074°01'713.6
2017-Oct-10 00:00N 40°39' W 074°03'510.9
2017-Oct-09 23:30N 40°44' W 074°01'2 4.6
2017-Oct-09 22:59N 40°46' W 073°60'0 0.0
2017-Oct-09 22:30N 40°46' W 073°60'0 0.0
2017-Oct-09 22:00N 40°46' W 073°60'0 0.0
2017-Oct-09 21:30N 40°46' W 073°60'0 0.0
2017-Oct-09 21:00N 40°46' W 073°60'0 0.0
2017-Oct-09 20:30N 40°46' W 073°60'0 0.0
2017-Oct-09 20:00N 40°46' W 073°60'0 0.0
2017-Oct-09 19:30N 40°46' W 073°60'0 0.0
2017-Oct-09 19:00N 40°46' W 073°60'0 0.0
2017-Oct-09 18:30N 40°46' W 073°60'0 0.0
2017-Oct-09 18:00N 40°46' W 073°60'0 0.0
2017-Oct-09 17:30N 40°46' W 073°60'0 0.0
2017-Oct-09 17:00N 40°46' W 073°60'0 0.0
2017-Oct-09 16:30N 40°46' W 073°60'0 0.0
2017-Oct-09 16:00N 40°46' W 073°60'0 0.0
2017-Oct-09 15:30N 40°46' W 073°60'0 0.0
2017-Oct-09 15:00N 40°46' W 073°60'0 0.0
2017-Oct-09 14:30N 40°46' W 073°60'0 0.0
2017-Oct-09 14:00N 40°46' W 073°60'0 0.0
2017-Oct-09 13:30N 40°46' W 073°60'0 0.0
2017-Oct-09 13:00N 40°46' W 073°60'0 0.0
2017-Oct-09 12:30N 40°46' W 073°60'0 0.0
2017-Oct-09 12:00N 40°46' W 073°60'0 0.0
2017-Oct-09 11:30N 40°46' W 073°60'0 0.0
2017-Oct-09 11:00N 40°46' W 073°60'0 0.0
2017-Oct-09 10:30N 40°46' W 073°60'0 0.0
2017-Oct-09 10:00N 40°46' W 073°60'0 0.0
2017-Oct-09 09:30N 40°46' W 073°60'0 0.0
2017-Oct-09 09:00N 40°46' W 073°60'0 0.0
2017-Oct-09 08:30N 40°46' W 073°60'0 0.0
2017-Oct-09 08:00N 40°46' W 073°60'0 0.0
2017-Oct-09 07:30N 40°46' W 073°60'0 0.0
2017-Oct-09 07:00N 40°46' W 073°60'0 0.0
2017-Oct-09 06:30N 40°46' W 073°60'0 0.0
2017-Oct-09 06:00N 40°46' W 073°60'0 0.0
2017-Oct-09 05:30N 40°46' W 073°60'0 0.0
2017-Oct-09 05:00N 40°46' W 073°60'0 0.0
2017-Oct-09 04:30N 40°46' W 073°60'0 0.0
2017-Oct-09 04:00N 40°46' W 073°60'0 0.0
2017-Oct-09 03:30N 40°46' W 073°60'0 0.0
2017-Oct-09 03:00N 40°46' W 073°60'0 0.0
2017-Oct-09 02:30N 40°46' W 073°60'0 0.0
2017-Oct-09 02:00N 40°46' W 073°60'0 0.0
2017-Oct-09 01:30N 40°46' W 073°60'0 0.0
2017-Oct-09 01:00N 40°46' W 073°60'0 0.0
2017-Oct-09 00:30N 40°46' W 073°60'0 0.0
2017-Oct-09 00:00N 40°46' W 073°60'0 0.0
2017-Oct-08 23:30N 40°46' W 073°60'0 0.0
2017-Oct-08 23:00N 40°46' W 073°60'0 0.0
2017-Oct-08 22:30N 40°46' W 073°60'0 0.0
2017-Oct-08 22:00N 40°46' W 073°60'0 0.0
2017-Oct-08 21:30N 40°46' W 073°60'0 0.0
2017-Oct-08 21:00N 40°46' W 073°60'0 0.0
2017-Oct-08 20:30N 40°46' W 073°60'0 0.0
2017-Oct-08 20:00N 40°46' W 073°60'0 0.0
2017-Oct-08 19:30N 40°46' W 073°60'0 0.0
2017-Oct-08 19:00N 40°46' W 073°60'0 0.0
2017-Oct-08 18:30N 40°46' W 073°60'0 0.0
2017-Oct-08 18:00N 40°46' W 073°60'0 0.0
2017-Oct-08 17:30N 40°46' W 073°60'0 0.0
2017-Oct-08 17:00N 40°46' W 073°60'0 0.0
2017-Oct-08 16:30N 40°46' W 073°60'0 0.0
2017-Oct-08 16:00N 40°46' W 073°60'0 0.0
2017-Oct-08 15:30N 40°46' W 073°60'0 0.0
2017-Oct-08 15:00N 40°46' W 073°60'0 0.0
2017-Oct-08 14:30N 40°46' W 073°60'0 0.0
2017-Oct-08 14:00N 40°46' W 073°60'0 0.0
2017-Oct-08 13:30N 40°46' W 073°60'0 0.0
2017-Oct-08 13:00N 40°46' W 073°60'0 0.0
2017-Oct-08 12:30N 40°46' W 073°60'0 0.0
2017-Oct-08 12:00N 40°46' W 073°60'0 0.0
2017-Oct-08 11:30N 40°46' W 073°60'0 0.0
2017-Oct-08 11:00N 40°46' W 073°60'0 0.0
2017-Oct-08 10:30N 40°46' W 073°60'0 0.0
2017-Oct-08 10:00N 40°46' W 073°60'0 0.0
2017-Oct-08 09:30N 40°46' W 073°60'0 0.0
2017-Oct-08 09:00N 40°46' W 073°60'0 0.0
2017-Oct-08 08:30N 40°46' W 073°60'0 0.0
2017-Oct-08 08:00N 40°46' W 073°60'0 0.0
2017-Oct-08 07:30N 40°46' W 073°60'0 0.0
2017-Oct-08 07:00N 40°46' W 073°60'0 0.0
2017-Oct-08 06:30N 40°46' W 073°60'0 0.0
2017-Oct-08 06:00N 40°46' W 073°60'0 0.0
2017-Oct-08 05:30N 40°46' W 073°60'0 0.0
2017-Oct-08 05:00N 40°46' W 073°60'0 0.0
2017-Oct-08 04:30N 40°46' W 073°60'0 0.0
2017-Oct-08 04:00N 40°46' W 073°60'0 0.0
2017-Oct-08 03:30N 40°46' W 073°60'0 0.0
2017-Oct-08 03:00N 40°46' W 073°60'0 0.0
2017-Oct-08 02:30N 40°46' W 073°60'0 0.0
2017-Oct-08 02:00N 40°46' W 073°60'0 0.0
2017-Oct-08 01:30N 40°46' W 073°60'0 0.0
2017-Oct-08 01:00N 40°46' W 073°60'0 0.0
2017-Oct-08 00:30N 40°46' W 073°60'0 0.0
2017-Oct-08 00:00N 40°46' W 073°60'0 0.0
2017-Oct-07 23:30N 40°46' W 073°60'0 0.0
2017-Oct-07 23:00N 40°46' W 073°60'0 0.0
2017-Oct-07 22:30N 40°46' W 073°60'0 0.0
2017-Oct-07 22:00N 40°46' W 073°60'0 0.0
2017-Oct-07 21:30N 40°46' W 073°60'0 0.0
2017-Oct-07 21:00N 40°46' W 073°60'0 0.0
2017-Oct-07 20:30N 40°46' W 073°60'0 0.0
2017-Oct-07 20:00N 40°46' W 073°60'0 0.0
2017-Oct-07 19:30N 40°46' W 073°60'0 0.0
2017-Oct-07 19:00N 40°46' W 073°60'0 0.0
2017-Oct-07 18:30N 40°46' W 073°60'0 0.0
2017-Oct-07 18:00N 40°46' W 073°60'0 0.0
2017-Oct-07 17:30N 40°46' W 073°60'0 0.0
2017-Oct-07 17:00N 40°46' W 073°60'0 0.0
2017-Oct-07 16:30N 40°46' W 073°60'0 0.0
2017-Oct-07 15:59N 40°46' W 073°60'0 0.0
2017-Oct-07 15:30N 40°46' W 073°60'0 0.0
2017-Oct-07 15:00N 40°46' W 073°60'0 0.0
2017-Oct-07 14:30N 40°46' W 073°60'0 0.0
2017-Oct-07 14:00N 40°46' W 073°60'0 0.0
2017-Oct-07 13:30N 40°46' W 073°60'0 0.0
2017-Oct-07 13:00N 40°46' W 073°60'0 0.0
2017-Oct-07 12:30N 40°46' W 073°60'0 0.0
2017-Oct-07 12:00N 40°46' W 073°60'0 1.0
2017-Oct-07 11:30N 40°46' W 074°00'510.6
2017-Oct-07 11:00N 40°41' W 074°02'612.4
2017-Oct-07 10:30N 40°35' W 074°02'814.9
2017-Oct-07 09:59N 40°29' W 073°55'613.1
2017-Oct-07 09:30N 40°27' W 073°47'5 9.1
2017-Oct-07 09:00N 40°27' W 073°41'714.5
2017-Oct-07 08:30N 40°28' W 073°32'714.2
2017-Oct-07 08:00N 40°29' W 073°22'714.2
2017-Oct-07 07:30N 40°29' W 073°13'814.2
2017-Oct-07 06:55N 40°30' W 073°02'614.2
2017-Oct-07 06:30N 40°30' W 072°55'714.2
2017-Oct-07 06:00N 40°30' W 072°45'814.2
2017-Oct-07 05:25N 40°31' W 072°34'714.2
2017-Oct-07 04:55N 40°31' W 072°25'148 6.4
2017-Oct-06 05:46N 42°08' W 069°56'2 8.5
2017-Oct-06 05:30N 42°10' W 069°57'5 8.2
2017-Oct-06 04:55N 42°14' W 070°00'3 7.8
2017-Oct-06 04:30N 42°17' W 070°03'4 8.1
2017-Oct-06 04:00N 42°18' W 070°09'4 7.8
2017-Oct-06 03:30N 42°18' W 070°14'4 7.7
2017-Oct-06 03:00N 42°18' W 070°19'4 7.4
2017-Oct-06 02:30N 42°19' W 070°24'4 7.4
2017-Oct-06 02:00N 42°19' W 070°29'4 7.4
2017-Oct-06 01:30N 42°19' W 070°34'4 8.7
2017-Oct-06 01:00N 42°20' W 070°40'714.2
2017-Oct-06 00:30N 42°24' W 070°48'612.2
2017-Oct-06 00:01N 42°22' W 070°55'4 8.2
2017-Oct-05 23:30N 42°21' W 071°01'1 1.9
2017-Oct-05 23:00N 42°21' W 071°02'0 0.0
2017-Oct-05 22:30N 42°21' W 071°02'0 0.0
2017-Oct-05 22:00N 42°21' W 071°02'0 0.0
2017-Oct-05 21:30N 42°21' W 071°02'0 0.0
2017-Oct-05 21:00N 42°21' W 071°02'0 0.0
2017-Oct-05 20:31N 42°21' W 071°02'0 0.0
2017-Oct-05 20:00N 42°21' W 071°02'0 0.0
2017-Oct-05 19:30N 42°21' W 071°02'0 0.0
2017-Oct-05 19:00N 42°21' W 071°02'0 0.0
2017-Oct-05 18:31N 42°21' W 071°02'0 0.0
2017-Oct-05 18:00N 42°21' W 071°02'0 0.0
2017-Oct-05 17:30N 42°21' W 071°02'0 0.0
2017-Oct-05 17:00N 42°21' W 071°02'0 0.0
2017-Oct-05 15:30N 42°21' W 071°02'0 0.0
2017-Oct-05 15:00N 42°21' W 071°02'0 0.0
2017-Oct-05 14:30N 42°21' W 071°02'0 0.0
2017-Oct-05 14:01N 42°21' W 071°02'0 0.0
2017-Oct-05 13:31N 42°21' W 071°02'0 0.0
2017-Oct-05 13:01N 42°21' W 071°02'0 0.2
2017-Oct-05 12:30N 42°21' W 071°02'3 6.0
2017-Oct-05 12:00N 42°20' W 070°58'612.8
2017-Oct-05 11:31N 42°24' W 070°51'510.1
2017-Oct-05 11:01N 42°26' W 070°45'713.7
2017-Oct-05 10:30N 42°31' W 070°38'713.4
2017-Oct-05 10:00N 42°34' W 070°30'713.3
2017-Oct-05 09:30N 42°38' W 070°22'613.3
2017-Oct-05 09:00N 42°41' W 070°14'713.4
2017-Oct-05 08:31N 42°45' W 070°07'713.6
2017-Oct-05 08:01N 42°49' W 070°00'  

Dump ship's entire track history